createdAt,value
2022-09-23T00:01:21.510Z,92.20
2022-09-23T00:03:49.563Z,92.20
2022-09-23T00:06:22.882Z,92.20
2022-09-23T00:08:50.926Z,92.20
2022-09-23T00:11:21.750Z,92.20
2022-09-23T00:13:51.445Z,92.20
2022-09-23T00:16:22.186Z,92.20
2022-09-23T00:18:52.454Z,92.20
2022-09-23T00:21:20.779Z,92.20
2022-09-23T00:23:48.715Z,92.20
2022-09-23T00:26:19.318Z,92.20
2022-09-23T00:28:47.756Z,92.20
2022-09-23T00:31:23.653Z,92.20
2022-09-23T00:33:59.612Z,92.20
2022-09-23T00:36:28.825Z,92.20
2022-09-23T00:38:56.113Z,92.20
2022-09-23T00:41:24.156Z,92.20
2022-09-23T00:43:53.352Z,92.20
2022-09-23T00:46:44.027Z,92.20
2022-09-23T00:49:21.355Z,92.20
2022-09-23T00:51:58.934Z,92.20
2022-09-23T00:54:28.220Z,92.20
2022-09-23T00:56:56.977Z,92.20
2022-09-23T00:59:26.573Z,92.20
2022-09-23T01:01:55.184Z,92.20
2022-09-23T01:04:27.746Z,92.20
2022-09-23T01:06:55.645Z,92.20
2022-09-23T01:09:24.233Z,92.20
2022-09-23T01:12:07.112Z,92.20
2022-09-23T01:14:53.948Z,92.20
2022-09-23T01:17:33.988Z,92.20
2022-09-23T01:20:31.840Z,92.20
2022-09-23T01:23:18.077Z,92.20
2022-09-23T01:25:57.425Z,92.20
2022-09-23T01:28:54.123Z,92.20
2022-09-23T01:31:43.540Z,92.20
2022-09-23T01:34:33.996Z,92.20
2022-09-23T01:37:11.821Z,92.20
2022-09-23T01:39:51.027Z,92.20
2022-09-23T01:42:25.189Z,92.20
2022-09-23T01:44:59.492Z,92.20
2022-09-23T01:47:35.936Z,92.20
2022-09-23T01:50:25.337Z,92.20
2022-09-23T01:52:58.397Z,92.20
2022-09-23T01:55:32.286Z,92.20
2022-09-23T01:58:16.438Z,92.20
2022-09-23T02:00:54.518Z,92.20
2022-09-23T02:03:34.591Z,92.20
2022-09-23T02:06:04.628Z,92.20
2022-09-23T02:08:53.683Z,92.20
2022-09-23T02:11:22.388Z,92.20
2022-09-23T02:14:03.259Z,92.20
2022-09-23T02:16:36.291Z,92.20
2022-09-23T02:19:32.371Z,92.20
2022-09-23T02:22:22.573Z,92.20
2022-09-23T02:24:49.978Z,92.20
2022-09-23T02:27:39.933Z,92.20
2022-09-23T02:30:20.648Z,92.20
2022-09-23T02:32:57.224Z,92.20
2022-09-23T02:35:45.366Z,92.20
2022-09-23T02:38:35.492Z,92.20
2022-09-23T02:41:36.825Z,92.20
2022-09-23T02:44:13.260Z,92.20
2022-09-23T02:46:43.659Z,92.20
2022-09-23T02:49:17.850Z,92.20
2022-09-23T02:51:45.796Z,92.20
2022-09-23T02:54:20.522Z,92.20
2022-09-23T02:56:51.050Z,92.20
2022-09-23T02:59:19.849Z,92.20
2022-09-23T03:02:28.906Z,92.20
2022-09-23T03:05:19.306Z,92.20
2022-09-23T03:08:25.986Z,92.20
2022-09-23T03:11:21.597Z,92.20
2022-09-23T03:14:06.945Z,92.20
2022-09-23T03:16:44.299Z,92.20
2022-09-23T03:19:26.171Z,92.20
2022-09-23T03:22:29.629Z,92.20
2022-09-23T03:25:01.992Z,92.20
2022-09-23T03:27:32.895Z,92.20
2022-09-23T03:30:01.277Z,92.20
2022-09-23T03:32:30.090Z,92.20
2022-09-23T03:35:02.201Z,92.20
2022-09-23T03:37:41.748Z,92.20
2022-09-23T03:40:26.218Z,92.20
2022-09-23T03:42:56.424Z,92.20
2022-09-23T03:45:30.067Z,92.20
2022-09-23T03:47:57.881Z,92.20
2022-09-23T03:50:25.181Z,92.20
2022-09-23T03:52:53.110Z,92.20
2022-09-23T03:55:21.628Z,92.20
2022-09-23T03:57:49.677Z,92.20
2022-09-23T04:00:17.574Z,92.20
2022-09-23T04:02:45.884Z,92.20
2022-09-23T04:05:15.289Z,92.20
2022-09-23T04:07:42.860Z,92.20
2022-09-23T04:10:10.839Z,92.20
2022-09-23T04:12:38.544Z,92.20
2022-09-23T04:15:07.051Z,92.20
2022-09-23T04:17:34.586Z,92.20
2022-09-23T04:20:02.106Z,92.20
2022-09-23T04:22:29.479Z,92.20
2022-09-23T04:24:57.080Z,92.20
2022-09-23T04:27:24.534Z,92.20
2022-09-23T04:29:51.913Z,92.20
2022-09-23T04:32:19.223Z,92.20
2022-09-23T04:34:46.454Z,92.20
2022-09-23T04:37:13.990Z,92.20
2022-09-23T04:39:41.248Z,92.20
2022-09-23T04:42:08.566Z,92.20
2022-09-23T04:44:36.054Z,92.20
2022-09-23T04:47:04.627Z,92.20
2022-09-23T04:49:33.553Z,92.20
2022-09-23T04:52:01.052Z,92.20
2022-09-23T04:54:28.375Z,92.20
2022-09-23T04:56:56.032Z,92.20
2022-09-23T04:59:23.605Z,92.20
2022-09-23T05:01:52.174Z,92.20
2022-09-23T05:04:19.664Z,92.20
2022-09-23T05:06:47.043Z,92.20
2022-09-23T05:09:20.045Z,92.20
2022-09-23T05:11:47.416Z,92.20
2022-09-23T05:14:14.861Z,92.20
2022-09-23T05:16:42.532Z,92.20
2022-09-23T05:19:10.014Z,92.20
2022-09-23T05:21:38.286Z,92.20
2022-09-23T05:24:06.091Z,92.20
2022-09-23T05:26:33.671Z,92.20
2022-09-23T05:29:01.169Z,92.20
2022-09-23T05:31:30.514Z,92.20
2022-09-23T05:34:00.115Z,92.20
2022-09-23T05:36:28.869Z,92.20
2022-09-23T05:38:57.269Z,92.20
2022-09-23T05:41:26.054Z,92.20
2022-09-23T05:43:54.690Z,92.20
2022-09-23T05:46:28.260Z,92.20
2022-09-23T05:49:01.846Z,92.20
2022-09-23T05:51:31.316Z,92.20
2022-09-23T05:53:59.934Z,92.20
2022-09-23T05:56:28.820Z,92.20
2022-09-23T05:58:58.584Z,92.20
2022-09-23T06:01:28.589Z,92.20
2022-09-23T06:03:57.965Z,92.20
2022-09-23T06:06:29.768Z,92.20
2022-09-23T06:08:57.679Z,92.20
2022-09-23T06:11:25.638Z,92.20
2022-09-23T06:13:57.244Z,92.20
2022-09-23T06:16:24.731Z,92.20
2022-09-23T06:18:52.159Z,92.20
2022-09-23T06:21:19.876Z,92.20
2022-09-23T06:23:47.445Z,92.20
2022-09-23T06:26:16.722Z,92.20
2022-09-23T06:28:45.362Z,92.20
2022-09-23T06:31:15.615Z,92.20
2022-09-23T06:33:45.247Z,92.20
2022-09-23T06:36:20.869Z,92.20
2022-09-23T06:38:51.846Z,92.20
2022-09-23T06:41:21.048Z,92.20
2022-09-23T06:43:48.617Z,92.20
2022-09-23T06:46:17.356Z,92.20
2022-09-23T06:48:46.253Z,92.20
2022-09-23T06:51:21.920Z,92.20
2022-09-23T06:53:49.889Z,92.20
2022-09-23T06:56:20.028Z,92.20
2022-09-23T06:58:47.469Z,92.20
2022-09-23T07:01:18.274Z,92.20
2022-09-23T07:03:47.534Z,92.20
2022-09-23T07:06:14.878Z,92.20
2022-09-23T07:08:45.595Z,92.20
2022-09-23T07:11:13.605Z,92.20
2022-09-23T07:13:42.519Z,92.20
2022-09-23T07:16:12.113Z,92.20
2022-09-23T07:18:39.957Z,92.20
2022-09-23T07:21:10.563Z,92.20
2022-09-23T07:23:38.212Z,92.20
2022-09-23T07:26:06.203Z,92.20
2022-09-23T07:28:33.980Z,92.20
2022-09-23T07:31:07.114Z,92.20
2022-09-23T07:33:40.162Z,92.20
2022-09-23T07:36:10.351Z,92.20
2022-09-23T07:38:42.951Z,92.20
2022-09-23T07:41:14.528Z,92.20
2022-09-23T07:43:42.128Z,92.20
2022-09-23T07:46:13.337Z,92.20
2022-09-23T07:48:41.076Z,92.20
2022-09-23T07:51:22.640Z,92.20
2022-09-23T07:53:54.575Z,92.20
2022-09-23T07:56:26.138Z,92.20
2022-09-23T07:59:06.179Z,92.20
2022-09-23T08:01:36.537Z,92.20
2022-09-23T08:04:25.739Z,92.20
2022-09-23T08:06:58.412Z,92.20
2022-09-23T08:09:29.045Z,92.20
2022-09-23T08:11:56.554Z,92.20
2022-09-23T08:14:24.124Z,92.20
2022-09-23T08:16:52.503Z,89.00
2022-09-23T08:19:20.084Z,89.80
2022-09-23T08:21:47.841Z,88.40
2022-09-23T08:24:20.037Z,90.10
2022-09-23T08:26:48.879Z,89.60
2022-09-23T08:29:17.979Z,88.20
2022-09-23T08:31:45.647Z,87.50
2022-09-23T08:34:13.545Z,86.20
2022-09-23T08:36:40.896Z,81.80
2022-09-23T08:39:09.161Z,84.30
2022-09-23T08:41:39.210Z,84.50
2022-09-23T08:44:19.646Z,80.30
2022-09-23T08:47:08.071Z,83.70
2022-09-23T08:49:52.443Z,84.20
2022-09-23T08:52:29.218Z,82.10
2022-09-23T08:54:56.855Z,80.80
2022-09-23T08:57:44.165Z,77.50
2022-09-23T09:00:20.448Z,78.20
2022-09-23T09:02:50.262Z,79.50
2022-09-23T09:05:25.780Z,78.10
2022-09-23T09:07:57.939Z,76.60
2022-09-23T09:10:41.991Z,75.00
2022-09-23T09:13:35.032Z,74.60
2022-09-23T09:16:31.693Z,75.30
2022-09-23T09:19:17.364Z,74.10
2022-09-23T09:21:48.415Z,72.00
2022-09-23T09:24:39.173Z,72.20
2022-09-23T09:27:12.309Z,71.50
2022-09-23T09:29:43.956Z,71.00
2022-09-23T09:32:46.566Z,69.40
2022-09-23T09:35:38.090Z,68.00
2022-09-23T09:38:09.202Z,65.60
2022-09-23T09:40:46.334Z,66.50
2022-09-23T09:43:23.771Z,66.50
2022-09-23T09:46:14.394Z,65.80
2022-09-23T09:49:02.643Z,63.60
2022-09-23T09:51:30.432Z,62.60
2022-09-23T09:54:18.371Z,60.10
2022-09-23T09:59:24.958Z,63.30
2022-09-23T10:02:32.352Z,62.00
2022-09-23T10:05:23.455Z,62.50
2022-09-23T10:07:50.717Z,62.70
2022-09-23T10:10:32.311Z,63.00
2022-09-23T10:13:15.662Z,61.20
2022-09-23T10:15:45.467Z,62.40
2022-09-23T10:18:48.646Z,60.50
2022-09-23T10:21:23.116Z,59.00
2022-09-23T10:23:58.967Z,59.20
2022-09-23T10:26:33.609Z,61.20
2022-09-23T10:29:20.592Z,65.20
2022-09-23T10:31:47.950Z,66.10
2022-09-23T10:34:29.840Z,66.60
2022-09-23T10:37:10.127Z,69.80
2022-09-23T10:39:55.950Z,69.90
2022-09-23T10:42:54.251Z,70.10
2022-09-23T10:45:46.868Z,71.10
2022-09-23T10:48:17.278Z,70.60
2022-09-23T10:50:51.911Z,70.90
2022-09-23T10:53:43.402Z,71.60
2022-09-23T10:56:10.629Z,71.10
2022-09-23T10:59:07.221Z,71.70
2022-09-23T11:01:40.703Z,69.00
2022-09-23T11:04:40.517Z,68.20
2022-09-23T11:07:28.266Z,73.10
2022-09-23T11:10:45.465Z,71.10
2022-09-23T11:13:23.616Z,72.60
2022-09-23T11:16:32.143Z,70.90
2022-09-23T11:19:34.077Z,68.30
2022-09-23T11:22:23.659Z,62.80
2022-09-23T11:25:23.869Z,61.70
2022-09-23T11:28:20.932Z,58.10
2022-09-23T11:31:17.365Z,57.20
2022-09-23T11:34:05.005Z,57.40
2022-09-23T11:36:40.339Z,60.40
2022-09-23T11:39:31.467Z,58.10
2022-09-23T11:42:01.936Z,60.90
2022-09-23T11:44:37.779Z,61.80
2022-09-23T11:47:16.986Z,60.70
2022-09-23T11:49:56.591Z,59.60
2022-09-23T11:52:33.809Z,61.40
2022-09-23T11:55:21.935Z,60.40
2022-09-23T11:58:10.598Z,61.50
2022-09-23T12:01:01.063Z,58.30
2022-09-23T12:03:40.895Z,60.90
2022-09-23T12:06:36.725Z,59.00
2022-09-23T12:09:53.858Z,58.80
2022-09-23T12:12:34.736Z,58.80
2022-09-23T12:15:11.415Z,58.00
2022-09-23T12:17:44.883Z,59.40
2022-09-23T12:20:32.962Z,59.60
2022-09-23T12:23:15.333Z,60.30
2022-09-23T12:26:09.508Z,61.90
2022-09-23T12:28:41.295Z,63.40
2022-09-23T12:31:31.068Z,64.30
2022-09-23T12:34:01.141Z,63.00
2022-09-23T12:36:36.638Z,64.10
2022-09-23T12:39:38.907Z,64.20
2022-09-23T12:42:14.855Z,61.40
2022-09-23T12:44:44.713Z,61.60
2022-09-23T12:47:15.173Z,64.10
2022-09-23T12:49:44.105Z,63.20
2022-09-23T12:52:11.337Z,62.00
2022-09-23T12:54:40.565Z,64.40
2022-09-23T12:57:33.548Z,65.20
2022-09-23T13:00:15.543Z,64.50
2022-09-23T13:03:21.774Z,61.20
2022-09-23T13:06:11.769Z,62.30
2022-09-23T13:08:42.598Z,63.60
2022-09-23T13:11:22.777Z,63.70
2022-09-23T13:13:51.313Z,62.10
2022-09-23T13:16:32.122Z,62.70
2022-09-23T13:19:04.790Z,64.10
2022-09-23T13:21:45.131Z,63.80
2022-09-23T13:24:21.215Z,63.90
2022-09-23T13:26:54.628Z,63.60
2022-09-23T13:29:35.235Z,65.50
2022-09-23T13:32:03.400Z,65.50
2022-09-23T13:34:37.137Z,64.70
2022-09-23T13:37:24.996Z,63.50
2022-09-23T13:39:52.447Z,60.00
2022-09-23T13:42:30.829Z,61.80
2022-09-23T13:45:00.771Z,61.10
2022-09-23T13:47:31.286Z,60.70
2022-09-23T13:49:58.960Z,61.60
2022-09-23T13:52:33.257Z,62.80
2022-09-23T13:55:00.617Z,63.00
2022-09-23T13:57:31.041Z,60.60
2022-09-23T14:00:18.672Z,61.70
2022-09-23T14:02:49.036Z,61.90
2022-09-23T14:05:27.554Z,62.90
2022-09-23T14:07:56.693Z,61.90
2022-09-23T14:10:27.978Z,61.20
2022-09-23T14:12:56.862Z,62.10
2022-09-23T14:15:24.609Z,64.30
2022-09-23T14:18:02.524Z,64.60
2022-09-23T14:20:29.955Z,63.40
2022-09-23T14:23:11.595Z,63.60
2022-09-23T14:25:41.623Z,63.30
2022-09-23T14:28:19.357Z,61.80
2022-09-23T14:30:48.391Z,63.20
2022-09-23T14:33:34.513Z,65.70
2022-09-23T14:36:29.193Z,64.00
2022-09-23T14:39:07.650Z,66.50
2022-09-23T14:41:44.717Z,65.70
2022-09-23T14:44:27.082Z,66.40
2022-09-23T14:47:00.058Z,65.30
2022-09-23T14:49:28.474Z,65.70
2022-09-23T14:52:00.846Z,65.70
2022-09-23T14:54:37.858Z,65.80
2022-09-23T14:57:29.496Z,67.10
2022-09-23T15:00:00.733Z,67.30
2022-09-23T15:02:40.169Z,66.00
2022-09-23T15:05:20.542Z,64.60
2022-09-23T15:07:53.573Z,65.00
2022-09-23T15:10:29.063Z,66.90
2022-09-23T15:13:21.196Z,68.60
2022-09-23T15:15:48.933Z,69.00
2022-09-23T15:18:25.907Z,69.70
2022-09-23T15:21:01.156Z,68.10
2022-09-23T15:23:55.404Z,69.30
2022-09-23T15:26:46.767Z,68.00
2022-09-23T15:29:14.061Z,69.00
2022-09-23T15:31:41.457Z,69.00
2022-09-23T15:34:11.484Z,68.80
2022-09-23T15:36:38.961Z,70.10
2022-09-23T15:39:08.902Z,71.00
2022-09-23T15:41:36.398Z,71.90
2022-09-23T15:44:13.176Z,71.50
2022-09-23T15:46:46.774Z,71.10
2022-09-23T15:49:28.870Z,72.10
2022-09-23T15:52:01.002Z,73.40
2022-09-23T15:54:29.539Z,73.00
2022-09-23T15:56:56.893Z,73.20
2022-09-23T15:59:25.111Z,74.60
2022-09-23T16:01:53.838Z,75.80
2022-09-23T16:04:21.166Z,77.50
2022-09-23T16:06:48.917Z,79.40
2022-09-23T16:09:16.541Z,79.40
2022-09-23T16:11:49.966Z,81.20
2022-09-23T16:14:18.569Z,82.40
2022-09-23T16:16:48.153Z,81.60
2022-09-23T16:19:16.579Z,82.40
2022-09-23T16:21:45.148Z,83.80
2022-09-23T16:24:18.172Z,85.10
2022-09-23T16:26:48.397Z,86.30
2022-09-23T16:29:15.787Z,86.50
2022-09-23T16:31:44.102Z,87.10
2022-09-23T16:34:11.607Z,87.70
2022-09-23T16:36:42.157Z,89.00
2022-09-23T16:39:12.821Z,89.70
2022-09-23T16:41:40.753Z,90.80
2022-09-23T16:44:09.635Z,91.70
2022-09-23T16:46:37.437Z,92.20
2022-09-23T16:49:05.430Z,92.20
2022-09-23T16:51:40.665Z,92.20
2022-09-23T16:54:10.893Z,92.20
2022-09-23T16:56:44.594Z,92.20
2022-09-23T16:59:16.389Z,92.20
2022-09-23T17:02:02.652Z,92.20
2022-09-23T17:04:30.082Z,92.20
2022-09-23T17:06:58.369Z,92.20
2022-09-23T17:09:28.222Z,92.20
2022-09-23T17:12:15.433Z,92.20
2022-09-23T17:14:44.224Z,92.20
2022-09-23T17:17:11.551Z,92.20
2022-09-23T17:19:41.637Z,92.20
2022-09-23T17:22:10.102Z,92.20
2022-09-23T17:24:37.435Z,92.20
2022-09-23T17:27:04.731Z,92.20
2022-09-23T17:29:32.112Z,92.20
2022-09-23T17:31:59.640Z,92.20
2022-09-23T17:34:29.391Z,92.20
2022-09-23T17:36:56.759Z,92.20
2022-09-23T17:39:24.085Z,92.20
2022-09-23T17:41:51.769Z,92.20
2022-09-23T17:44:19.211Z,92.20
2022-09-23T17:46:49.582Z,92.20
2022-09-23T17:49:21.405Z,92.20
2022-09-23T17:51:48.744Z,92.20
2022-09-23T17:54:16.449Z,92.20
2022-09-23T17:56:44.071Z,92.20
2022-09-23T17:59:15.279Z,92.20
2022-09-23T18:01:42.734Z,92.20
2022-09-23T18:04:10.239Z,92.20
2022-09-23T18:06:38.242Z,92.20
2022-09-23T18:09:07.671Z,92.20
2022-09-23T18:11:38.258Z,92.20
2022-09-23T18:14:15.706Z,92.20
2022-09-23T18:16:45.773Z,92.20
2022-09-23T18:19:24.672Z,92.20
2022-09-23T18:21:54.874Z,92.20
2022-09-23T18:24:38.415Z,92.20
2022-09-23T18:27:06.828Z,92.20
2022-09-23T18:29:35.449Z,92.20
2022-09-23T18:32:03.541Z,92.20
2022-09-23T18:34:31.032Z,92.20
2022-09-23T18:37:01.418Z,92.20
2022-09-23T18:39:29.472Z,92.20
2022-09-23T18:41:56.904Z,92.20
2022-09-23T18:44:24.640Z,92.20
2022-09-23T18:46:52.253Z,92.20
2022-09-23T18:49:37.994Z,92.20
2022-09-23T18:52:05.368Z,92.20
2022-09-23T18:54:33.015Z,92.20
2022-09-23T18:57:00.653Z,92.20
2022-09-23T18:59:29.939Z,92.20
2022-09-23T19:01:58.143Z,92.20
2022-09-23T19:04:26.852Z,92.20
2022-09-23T19:06:56.858Z,92.20
2022-09-23T19:09:24.486Z,92.20
2022-09-23T19:11:53.403Z,92.20
2022-09-23T19:14:21.034Z,92.20
2022-09-23T19:16:52.265Z,92.20
2022-09-23T19:19:19.660Z,92.20
2022-09-23T19:21:47.029Z,92.20
2022-09-23T19:24:20.282Z,92.20
2022-09-23T19:26:47.695Z,92.20
2022-09-23T19:29:19.774Z,92.20
2022-09-23T19:31:47.146Z,92.20
2022-09-23T19:34:20.038Z,92.20
2022-09-23T19:36:48.206Z,92.20
2022-09-23T19:39:23.121Z,92.20
2022-09-23T19:41:52.526Z,92.20
2022-09-23T19:44:20.371Z,92.20
2022-09-23T19:46:55.120Z,92.20
2022-09-23T19:49:24.899Z,92.20
2022-09-23T19:51:56.189Z,92.20
2022-09-23T19:54:29.800Z,92.20
2022-09-23T19:56:57.101Z,92.20
2022-09-23T19:59:26.662Z,92.20
2022-09-23T20:01:54.126Z,92.20
2022-09-23T20:04:25.411Z,92.20
2022-09-23T20:06:52.706Z,92.20
2022-09-23T20:09:20.014Z,92.20
2022-09-23T20:11:47.454Z,92.20
2022-09-23T20:14:15.586Z,92.20
2022-09-23T20:16:43.383Z,92.20
2022-09-23T20:19:11.494Z,92.20
2022-09-23T20:21:38.896Z,92.20
2022-09-23T20:24:07.190Z,92.20
2022-09-23T20:26:52.854Z,92.20
2022-09-23T20:29:20.204Z,92.20
2022-09-23T20:31:47.782Z,92.20
2022-09-23T20:34:15.515Z,92.20
2022-09-23T20:36:42.912Z,92.20
2022-09-23T20:39:10.741Z,92.20
2022-09-23T20:41:39.892Z,92.20
2022-09-23T20:44:14.030Z,92.20
2022-09-23T20:46:48.435Z,92.20
2022-09-23T20:49:19.898Z,92.20
2022-09-23T20:51:50.868Z,92.20
2022-09-23T20:54:21.279Z,92.20
2022-09-23T20:56:48.713Z,92.20
2022-09-23T20:59:18.202Z,92.20
2022-09-23T21:01:46.056Z,92.20
2022-09-23T21:04:13.588Z,92.20
2022-09-23T21:06:40.894Z,92.20
2022-09-23T21:09:08.314Z,92.20
2022-09-23T21:11:35.999Z,92.20
2022-09-23T21:14:03.465Z,92.20
2022-09-23T21:16:31.234Z,92.20
2022-09-23T21:18:59.228Z,92.20
2022-09-23T21:21:26.886Z,92.20
2022-09-23T21:23:54.332Z,92.20
2022-09-23T21:26:24.057Z,92.20
2022-09-23T21:28:59.295Z,92.20
2022-09-23T21:31:39.008Z,92.20
2022-09-23T21:34:09.120Z,92.20
2022-09-23T21:36:38.739Z,92.20
2022-09-23T21:39:07.288Z,92.20
2022-09-23T21:41:35.284Z,92.20
2022-09-23T21:44:04.769Z,92.20
2022-09-23T21:46:35.730Z,92.20
2022-09-23T21:49:04.235Z,92.20
2022-09-23T21:51:41.180Z,92.20
2022-09-23T21:54:13.283Z,92.20
2022-09-23T21:56:40.687Z,92.20
2022-09-23T21:59:08.377Z,92.20
2022-09-23T22:01:38.488Z,92.20
2022-09-23T22:04:18.358Z,92.20
2022-09-23T22:06:46.850Z,92.20
2022-09-23T22:09:17.766Z,92.20
2022-09-23T22:12:03.569Z,92.20
2022-09-23T22:14:31.476Z,92.20
2022-09-23T22:17:01.731Z,92.20
2022-09-23T22:19:33.114Z,92.20
2022-09-23T22:22:01.047Z,92.20
2022-09-23T22:24:28.719Z,92.20
2022-09-23T22:26:56.001Z,92.20
2022-09-23T22:29:41.885Z,92.20
2022-09-23T22:32:30.835Z,92.20
2022-09-23T22:34:58.251Z,92.20
2022-09-23T22:37:28.840Z,92.20
2022-09-23T22:39:56.511Z,92.20
2022-09-23T22:42:23.955Z,92.20
2022-09-23T22:44:52.092Z,92.20
2022-09-23T22:47:20.574Z,92.20
2022-09-23T22:49:48.959Z,92.20
2022-09-23T22:52:21.382Z,92.20
2022-09-23T22:54:48.867Z,92.20
2022-09-23T22:57:16.233Z,92.20
2022-09-23T22:59:48.338Z,92.20
2022-09-23T23:02:24.326Z,92.20
2022-09-23T23:04:51.804Z,92.20
2022-09-23T23:07:21.383Z,92.20
2022-09-23T23:09:51.165Z,92.20
2022-09-23T23:12:20.660Z,92.20
2022-09-23T23:14:49.660Z,92.20
2022-09-23T23:17:17.574Z,92.20
2022-09-23T23:19:44.933Z,92.20
2022-09-23T23:22:12.194Z,92.20
2022-09-23T23:24:39.607Z,92.20
2022-09-23T23:27:07.013Z,92.20
2022-09-23T23:29:34.443Z,92.20
2022-09-23T23:32:02.012Z,92.20
2022-09-23T23:34:29.304Z,92.20
2022-09-23T23:36:56.607Z,92.20
2022-09-23T23:39:25.709Z,92.20
2022-09-23T23:41:55.223Z,92.20
2022-09-23T23:44:24.034Z,92.20
2022-09-23T23:46:52.110Z,92.20
2022-09-23T23:49:19.955Z,92.20
2022-09-23T23:51:48.118Z,92.20
2022-09-23T23:54:15.875Z,92.20
2022-09-23T23:56:43.472Z,92.20
2022-09-23T23:59:10.993Z,92.20
